ウィニペグ の空港の天気 - METARとTAF

ウィニペグ国際空港 ( CYWG / YWG ) - カナダ マニトバ州ウィニペグ
飛行場実況気象(Metar)
観測時間01/22 23:00 CST (01/23 05:00 UTC)
風向・風速南南東 5m/s
視程10km以上
天気現象
全天を覆う雲 雲底高度 550m
気温-5℃
湿度74%
気圧1020.3hPa
METARCYWG 230500Z 16009KT 15SM OVC018 M05/M09 A3008 RMK SC8 SLP203
過去の天気等 Google飛行場航空写真 Wunderground天気予報

過去48時間のMETAR

飛行場予報(TAF)
発表時間: 1/22 23:38 CST (1/23 05:38 UTC)
予報対象時間: 23日0時 CST ~ 24日0時 CST
風向・風速南南東 5m/s
視程10km以上
全天を覆う雲 雲底高度 610m
23日0時 CST ~ 23日2時 CST に一時的に
全天を覆う雲 雲底高度 760m
23日3時 CST から
風向・風速南東 3m/s
視程10km以上
全天の4割程度の雲 雲底高度 180m
全天を覆う雲 雲底高度 610m
23日3時 CST ~ 23日9時 CST に一時的に
全天の8割程度の雲 雲底高度 180m
23日9時 CST から
風向・風速南南東 5m/s
視程10km以上
全天を覆う雲 雲底高度 180m
23日9時 CST ~ 23日14時 CST に一時的に
全天を覆う雲 雲底高度 370m
23日14時 CST から
風向・風速南 5m/s
視程10km以上
全天を覆う雲 雲底高度 370m
TAF CYWG 230538Z 2306/2406 16010KT P6SM OVC020
TEMPO 2306/2308 OVC025
FM230900 14006KT P6SM SCT006 OVC020
TEMPO 2309/2315 BKN006
FM231500 16010KT P6SM OVC006
TEMPO 2315/2320 OVC012
FM232000 18010KT P6SM OVC012 RMK NXT FCST BY 231200Z